createdAt,value
2023-03-29T00:00:35.909Z,101547.97
2023-03-29T00:01:42.033Z,101556.94
2023-03-29T00:02:48.730Z,101557.78
2023-03-29T00:03:52.013Z,101553.31
2023-03-29T00:04:53.859Z,101547.56
2023-03-29T00:06:03.219Z,101553.53
2023-03-29T00:07:06.069Z,101555.22
2023-03-29T00:08:09.153Z,101551.84
2023-03-29T00:09:11.400Z,101553.72
2023-03-29T00:10:13.367Z,101551.69
2023-03-29T00:11:15.137Z,101552.78
2023-03-29T00:12:17.496Z,101540.81
2023-03-29T00:13:19.338Z,101548.81
2023-03-29T00:14:21.249Z,101560.88
2023-03-29T00:15:23.263Z,101557.34
2023-03-29T00:16:25.353Z,101549.78
2023-03-29T00:17:27.230Z,101553.19
2023-03-29T00:18:29.067Z,101561.91
2023-03-29T00:19:35.618Z,101540.31
2023-03-29T00:20:37.725Z,101556.53
2023-03-29T00:21:39.524Z,101553.91
2023-03-29T00:22:46.824Z,101561.16
2023-03-29T00:23:48.750Z,101541.78
2023-03-29T00:24:54.246Z,101547.97
2023-03-29T00:25:56.919Z,101556.72
2023-03-29T00:26:58.715Z,101540.53
2023-03-29T00:28:00.527Z,101557.75
2023-03-29T00:29:02.367Z,101551.69
2023-03-29T00:30:07.402Z,101553.53
2023-03-29T00:31:14.839Z,101545.84
2023-03-29T00:32:16.841Z,101551.69
2023-03-29T00:33:20.685Z,101556.28
2023-03-29T00:34:23.937Z,101542.56
2023-03-29T00:35:25.795Z,101557.97
2023-03-29T00:36:28.005Z,101546.06
2023-03-29T00:37:32.611Z,101557.25
2023-03-29T00:38:35.134Z,101553.84
2023-03-29T00:39:37.185Z,101556.50
2023-03-29T00:40:47.104Z,101549.06
2023-03-29T00:41:50.385Z,101550.34
2023-03-29T00:42:52.380Z,101534.38
2023-03-29T00:44:02.833Z,101544.38
2023-03-29T00:45:10.867Z,101545.84
2023-03-29T00:46:13.569Z,101545.00
2023-03-29T00:47:16.376Z,101539.28
2023-03-29T00:48:27.283Z,101549.69
2023-03-29T00:49:29.486Z,101515.53
2023-03-29T00:50:51.787Z,101540.53
2023-03-29T00:51:53.762Z,101549.47
2023-03-29T00:53:21.873Z,101534.16
2023-03-29T00:54:24.952Z,101552.03
2023-03-29T00:55:32.511Z,101544.28
2023-03-29T00:56:40.554Z,101544.38
2023-03-29T00:57:46.518Z,101539.50
2023-03-29T00:58:55.261Z,101504.47
2023-03-29T00:59:59.129Z,101537.03
2023-03-29T01:01:08.872Z,101538.53
2023-03-29T01:02:11.551Z,101542.88
2023-03-29T01:03:14.730Z,101541.19
2023-03-29T01:04:40.689Z,101541.84
2023-03-29T01:05:49.814Z,101546.28
2023-03-29T01:07:23.383Z,101535.31
2023-03-29T01:08:41.952Z,101536.50
2023-03-29T01:09:48.554Z,101545.34
2023-03-29T01:11:17.322Z,101527.44
2023-03-29T01:12:32.770Z,101536.50
2023-03-29T01:14:10.545Z,101552.13
2023-03-29T01:15:17.593Z,101541.72
2023-03-29T01:16:22.135Z,101540.44
2023-03-29T01:17:25.621Z,101541.41
2023-03-29T01:18:27.633Z,101533.13
2023-03-29T01:19:34.729Z,101542.69
2023-03-29T01:21:03.469Z,101531.41
2023-03-29T01:22:29.719Z,101545.88
2023-03-29T01:23:51.247Z,101555.47
2023-03-29T01:25:07.144Z,101544.06
2023-03-29T01:26:18.948Z,101549.41
2023-03-29T01:27:58.232Z,101544.91
2023-03-29T01:29:23.737Z,101547.69
2023-03-29T01:30:37.375Z,101545.03
2023-03-29T01:31:47.908Z,101547.19
2023-03-29T01:32:55.654Z,101549.84
2023-03-29T01:34:12.804Z,101545.34
2023-03-29T01:35:42.585Z,101548.88
2023-03-29T01:37:14.131Z,101545.25
2023-03-29T01:38:23.473Z,101535.88
2023-03-29T01:39:25.352Z,101535.44
2023-03-29T01:40:28.408Z,101539.84
2023-03-29T01:41:46.800Z,101548.56
2023-03-29T01:43:25.005Z,101551.03
2023-03-29T01:44:41.740Z,101543.66
2023-03-29T01:45:54.470Z,101524.50
2023-03-29T01:47:12.399Z,101542.28
2023-03-29T01:48:44.208Z,101543.78
2023-03-29T01:50:12.315Z,101544.50
2023-03-29T01:51:31.696Z,101543.78
2023-03-29T01:52:54.127Z,101546.66
2023-03-29T01:54:08.010Z,101548.34
2023-03-29T01:55:18.576Z,101537.19
2023-03-29T01:56:24.911Z,101549.72
2023-03-29T01:57:27.476Z,101540.03
2023-03-29T01:58:34.009Z,101539.72
2023-03-29T01:59:40.682Z,101534.63
2023-03-29T02:00:43.897Z,101538.69
2023-03-29T02:01:51.829Z,101535.28
2023-03-29T02:03:00.247Z,101538.78
2023-03-29T02:04:06.835Z,101541.44
2023-03-29T02:05:10.297Z,101511.41
2023-03-29T02:06:15.548Z,101538.91
2023-03-29T02:07:22.480Z,101535.56
2023-03-29T02:08:25.702Z,101541.56
2023-03-29T02:09:29.894Z,101531.13
2023-03-29T02:10:34.013Z,101535.50
2023-03-29T02:11:36.306Z,101530.16
2023-03-29T02:12:38.730Z,101534.63
2023-03-29T02:13:41.065Z,101525.88
2023-03-29T02:14:43.266Z,101523.66
2023-03-29T02:15:48.471Z,101512.50
2023-03-29T02:16:50.287Z,101527.59
2023-03-29T02:17:53.086Z,101524.19
2023-03-29T02:18:57.707Z,101533.13
2023-03-29T02:20:14.581Z,101531.22
2023-03-29T02:21:26.566Z,101525.69
2023-03-29T02:22:39.630Z,101528.25
2023-03-29T02:23:46.694Z,101531.00
2023-03-29T02:24:51.188Z,101523.34
2023-03-29T02:25:57.169Z,101519.72
2023-03-29T02:27:01.394Z,101512.06
2023-03-29T02:28:04.859Z,101530.47
2023-03-29T02:29:06.763Z,101519.41
2023-03-29T02:30:12.115Z,101516.13
2023-03-29T02:31:40.335Z,101527.06
2023-03-29T02:32:59.532Z,101523.97
2023-03-29T02:34:04.906Z,101524.84
2023-03-29T02:35:16.037Z,101522.28
2023-03-29T02:36:40.339Z,101519.38
2023-03-29T02:37:46.396Z,101523.97
2023-03-29T02:38:48.626Z,101509.50
2023-03-29T02:39:52.526Z,101524.41
2023-03-29T02:40:56.033Z,101505.25
2023-03-29T02:41:58.966Z,101514.72
2023-03-29T02:43:03.164Z,101517.59
2023-03-29T02:44:11.177Z,101522.06
2023-03-29T02:45:17.237Z,101513.13
2023-03-29T02:46:21.058Z,101496.22
2023-03-29T02:47:46.561Z,101518.13
2023-03-29T02:48:51.885Z,101520.91
2023-03-29T02:49:54.147Z,101500.38
2023-03-29T02:51:01.337Z,101517.59
2023-03-29T02:52:12.451Z,101521.22
2023-03-29T02:53:23.066Z,101512.28
2023-03-29T02:54:30.001Z,101510.56
2023-03-29T02:55:34.920Z,101513.31
2023-03-29T02:56:45.008Z,101508.00
2023-03-29T02:57:47.039Z,101508.00
2023-03-29T02:58:48.852Z,101501.63
2023-03-29T02:59:50.677Z,101510.13
2023-03-29T03:00:53.606Z,101504.06
2023-03-29T03:01:55.679Z,101505.91
2023-03-29T03:03:01.928Z,101509.53
2023-03-29T03:04:04.249Z,101504.19
2023-03-29T03:05:06.485Z,101501.53
2023-03-29T03:06:08.544Z,101502.50
2023-03-29T03:07:10.543Z,101504.28
2023-03-29T03:08:12.597Z,101510.47
2023-03-29T03:09:14.767Z,101501.00
2023-03-29T03:10:19.248Z,101502.50
2023-03-29T03:11:22.701Z,101501.97
2023-03-29T03:12:24.600Z,101487.38
2023-03-29T03:13:26.427Z,101498.75
2023-03-29T03:14:28.378Z,101513.34
2023-03-29T03:15:35.844Z,101513.34
2023-03-29T03:16:37.850Z,101506.13
2023-03-29T03:17:40.515Z,101505.38
2023-03-29T03:18:43.210Z,101510.69
2023-03-29T03:19:45.033Z,101512.50
2023-03-29T03:21:01.913Z,101514.31
2023-03-29T03:22:06.085Z,101516.75
2023-03-29T03:23:09.790Z,101509.31
2023-03-29T03:24:12.587Z,101516.25
2023-03-29T03:25:19.662Z,101507.59
2023-03-29T03:26:24.919Z,101504.81
2023-03-29T03:27:27.087Z,101513.34
2023-03-29T03:28:28.911Z,101517.06
2023-03-29T03:29:31.267Z,101515.28
2023-03-29T03:30:59.170Z,101511.44
2023-03-29T03:32:24.376Z,101519.22
2023-03-29T03:33:55.361Z,101510.13
2023-03-29T03:35:32.375Z,101513.16
2023-03-29T03:36:35.632Z,101516.75
2023-03-29T03:37:38.844Z,101502.38
2023-03-29T03:38:44.115Z,101513.56
2023-03-29T03:39:47.010Z,101510.13
2023-03-29T03:40:56.866Z,101512.06
2023-03-29T03:41:59.071Z,101498.22
2023-03-29T03:43:01.825Z,101516.53
2023-03-29T03:44:03.987Z,101515.66
2023-03-29T03:45:08.444Z,101510.56
2023-03-29T03:46:27.800Z,101517.38
2023-03-29T03:47:31.381Z,101506.72
2023-03-29T03:48:47.042Z,101516.53
2023-03-29T03:49:56.690Z,101506.72
2023-03-29T03:51:00.614Z,101505.03
2023-03-29T03:52:08.771Z,101513.97
2023-03-29T03:53:10.598Z,101507.91
2023-03-29T03:54:38.953Z,101486.09
2023-03-29T03:56:08.811Z,101501.22
2023-03-29T03:57:20.054Z,101497.78
2023-03-29T03:58:27.227Z,101493.97
2023-03-29T03:59:29.510Z,101515.78
2023-03-29T04:00:36.461Z,101507.16
2023-03-29T04:01:56.779Z,101508.88
2023-03-29T04:02:59.500Z,101510.69
2023-03-29T04:04:02.073Z,101509.06
2023-03-29T04:05:05.282Z,101512.69
2023-03-29T04:06:11.301Z,101510.03
2023-03-29T04:07:34.416Z,101502.72
2023-03-29T04:08:56.832Z,101498.97
2023-03-29T04:10:24.778Z,101491.19
2023-03-29T04:11:46.989Z,101506.94
2023-03-29T04:12:49.112Z,101506.41
2023-03-29T04:13:50.902Z,101498.78
2023-03-29T04:15:10.577Z,101502.06
2023-03-29T04:16:15.528Z,101498.66
2023-03-29T04:17:17.582Z,101510.38
2023-03-29T04:18:45.748Z,101494.81
2023-03-29T04:19:47.775Z,101508.53
2023-03-29T04:20:50.228Z,101503.34
2023-03-29T04:21:54.676Z,101504.59
2023-03-29T04:22:56.584Z,101494.19
2023-03-29T04:23:58.909Z,101471.06
2023-03-29T04:25:01.149Z,101504.53
2023-03-29T04:26:29.293Z,101489.41
2023-03-29T04:27:37.505Z,101504.19
2023-03-29T04:28:46.598Z,101502.47
2023-03-29T04:29:53.166Z,101487.03
2023-03-29T04:31:03.467Z,101493.22
2023-03-29T04:32:20.463Z,101504.19
2023-03-29T04:33:31.097Z,101493.66
2023-03-29T04:34:35.735Z,101495.66
2023-03-29T04:35:39.977Z,101495.66
2023-03-29T04:36:45.876Z,101501.00
2023-03-29T04:37:54.706Z,101509.84
2023-03-29T04:39:01.474Z,101495.88
2023-03-29T04:40:04.929Z,101501.19
2023-03-29T04:41:20.245Z,101483.94
2023-03-29T04:42:51.764Z,101505.13
2023-03-29T04:43:56.223Z,101492.34
2023-03-29T04:45:01.117Z,101500.13
2023-03-29T04:46:22.053Z,101500.03
2023-03-29T04:47:45.337Z,101493.09
2023-03-29T04:48:52.218Z,101497.38
2023-03-29T04:50:03.402Z,101501.00
2023-03-29T04:51:12.800Z,101496.72
2023-03-29T04:52:15.403Z,101489.25
2023-03-29T04:53:18.452Z,101501.41
2023-03-29T04:54:21.297Z,101500.84
2023-03-29T04:55:50.743Z,101506.72
2023-03-29T04:57:02.128Z,101503.88
2023-03-29T04:58:39.473Z,101502.03
2023-03-29T04:59:41.513Z,101518.00
2023-03-29T05:01:06.523Z,101507.34
2023-03-29T05:02:16.360Z,101512.81
2023-03-29T05:03:22.132Z,101513.75
2023-03-29T05:04:33.352Z,101516.50
2023-03-29T05:05:44.454Z,101509.47
2023-03-29T05:06:46.979Z,101511.41
2023-03-29T05:07:48.807Z,101514.97
2023-03-29T05:08:54.464Z,101514.97
2023-03-29T05:10:15.572Z,101514.72
2023-03-29T05:11:17.692Z,101513.97
2023-03-29T05:12:19.611Z,101513.09
2023-03-29T05:13:27.100Z,101517.38
2023-03-29T05:14:29.037Z,101505.44
2023-03-29T05:15:31.536Z,101514.72
2023-03-29T05:16:34.668Z,101515.47
2023-03-29T05:17:36.672Z,101516.09
2023-03-29T05:18:43.615Z,101516.75
2023-03-29T05:19:46.810Z,101517.47
2023-03-29T05:20:53.156Z,101511.22
2023-03-29T05:21:56.392Z,101507.38
2023-03-29T05:22:59.827Z,101504.84
2023-03-29T05:24:24.591Z,101519.94
2023-03-29T05:25:33.605Z,101511.75
2023-03-29T05:26:35.631Z,101509.97
2023-03-29T05:27:38.573Z,101509.31
2023-03-29T05:28:43.963Z,101503.47
2023-03-29T05:29:46.718Z,101513.16
2023-03-29T05:31:07.111Z,101510.78
2023-03-29T05:32:11.669Z,101514.19
2023-03-29T05:33:13.780Z,101509.72
2023-03-29T05:34:15.656Z,101513.97
2023-03-29T05:35:23.666Z,101513.75
2023-03-29T05:36:25.848Z,101507.59
2023-03-29T05:37:28.677Z,101504.59
2023-03-29T05:38:34.772Z,101504.59
2023-03-29T05:39:38.136Z,101516.50
2023-03-29T05:40:41.558Z,101510.22
2023-03-29T05:42:06.488Z,101507.34
2023-03-29T05:43:20.156Z,101506.72
2023-03-29T05:44:22.354Z,101516.63
2023-03-29T05:45:29.996Z,101512.78
2023-03-29T05:46:32.108Z,101510.94
2023-03-29T05:47:37.508Z,101517.03
2023-03-29T05:48:40.545Z,101523.22
2023-03-29T05:49:42.660Z,101508.94
2023-03-29T05:50:53.548Z,101516.69
2023-03-29T05:51:58.712Z,101513.06
2023-03-29T05:53:02.073Z,101511.16
2023-03-29T05:54:04.086Z,101516.34
2023-03-29T05:55:06.371Z,101511.16
2023-03-29T05:56:10.813Z,101513.69
2023-03-29T05:57:12.887Z,101509.09
2023-03-29T05:58:18.066Z,101495.41
2023-03-29T05:59:20.681Z,101509.88
2023-03-29T06:00:26.817Z,101510.72
2023-03-29T06:01:41.869Z,101513.06
2023-03-29T06:02:45.842Z,101506.25
2023-03-29T06:03:48.134Z,101492.72
2023-03-29T06:04:52.257Z,101512.19
2023-03-29T06:06:16.694Z,101511.13
2023-03-29T06:07:18.723Z,101513.66
2023-03-29T06:08:36.682Z,101519.63
2023-03-29T06:09:49.338Z,101519.50
2023-03-29T06:11:04.628Z,101517.06
2023-03-29T06:12:26.220Z,101516.63
2023-03-29T06:13:37.304Z,101503.00
2023-03-29T06:14:40.219Z,101516.00
2023-03-29T06:15:53.765Z,101519.41
2023-03-29T06:16:56.624Z,101510.78
2023-03-29T06:17:59.321Z,101502.63
2023-03-29T06:19:01.482Z,101517.94
2023-03-29T06:20:10.677Z,101481.84
2023-03-29T06:21:14.471Z,101517.81
2023-03-29T06:22:16.328Z,101514.31
2023-03-29T06:23:20.327Z,101517.06
2023-03-29T06:24:22.459Z,101512.59
2023-03-29T06:25:30.285Z,101516.97
2023-03-29T06:26:33.070Z,101516.84
2023-03-29T06:27:35.412Z,101517.94
2023-03-29T06:28:37.427Z,101516.09
2023-03-29T06:29:39.606Z,101513.44
2023-03-29T06:30:43.704Z,101510.78
2023-03-29T06:31:46.333Z,101514.31
2023-03-29T06:33:09.251Z,101518.34
2023-03-29T06:34:25.900Z,101518.16
2023-03-29T06:35:48.638Z,101517.19
2023-03-29T06:36:55.027Z,101517.47
2023-03-29T06:37:57.123Z,101517.47
2023-03-29T06:39:26.387Z,101511.88
2023-03-29T06:40:45.620Z,101514.31
2023-03-29T06:41:48.019Z,101521.75
2023-03-29T06:43:13.066Z,101517.94
2023-03-29T06:44:42.149Z,101513.34
2023-03-29T06:45:54.928Z,101519.72
2023-03-29T06:47:06.237Z,101517.94
2023-03-29T06:48:08.841Z,101502.78
2023-03-29T06:49:12.013Z,101514.81
2023-03-29T06:50:24.535Z,101517.28
2023-03-29T06:51:47.033Z,101514.53
2023-03-29T06:52:49.867Z,101515.50
2023-03-29T06:53:52.108Z,101514.72
2023-03-29T06:54:54.125Z,101513.03
2023-03-29T06:56:05.239Z,101512.16
2023-03-29T06:57:16.096Z,101510.25
2023-03-29T06:58:17.990Z,101508.63
2023-03-29T06:59:19.825Z,101505.56
2023-03-29T07:00:35.880Z,101518.25
2023-03-29T07:01:54.106Z,101504.25
2023-03-29T07:03:20.239Z,101513.44
2023-03-29T07:04:25.188Z,101509.94
2023-03-29T07:05:44.974Z,101509.81
2023-03-29T07:07:01.351Z,101510.03
2023-03-29T07:08:05.856Z,101513.56
2023-03-29T07:09:31.377Z,101507.28
2023-03-29T07:10:59.643Z,101512.25
2023-03-29T07:12:09.020Z,101508.00
2023-03-29T07:13:13.372Z,101510.91
2023-03-29T07:14:15.747Z,101506.63
2023-03-29T07:15:17.908Z,101511.97
2023-03-29T07:16:56.068Z,101506.09
2023-03-29T07:18:05.032Z,101504.38
2023-03-29T07:19:09.513Z,101501.94
2023-03-29T07:20:33.803Z,101496.72
2023-03-29T07:21:42.608Z,101501.94
2023-03-29T07:22:47.149Z,101505.56
2023-03-29T07:23:49.574Z,101505.56
2023-03-29T07:24:51.463Z,101488.41
2023-03-29T07:25:54.143Z,101509.28
2023-03-29T07:27:04.249Z,101497.22
2023-03-29T07:28:07.885Z,101505.56
2023-03-29T07:29:09.798Z,101509.19
2023-03-29T07:30:18.088Z,101506.63
2023-03-29T07:31:20.043Z,101493.50
2023-03-29T07:32:31.322Z,101507.28
2023-03-29T07:34:12.062Z,101505.72
2023-03-29T07:35:15.227Z,101494.03
2023-03-29T07:36:17.076Z,101503.50
2023-03-29T07:37:18.875Z,101503.66
2023-03-29T07:38:21.555Z,101489.25
2023-03-29T07:39:31.058Z,101508.97
2023-03-29T07:40:59.902Z,101503.19
2023-03-29T07:42:19.789Z,101503.06
2023-03-29T07:43:21.984Z,101500.63
2023-03-29T07:44:23.965Z,101492.75
2023-03-29T07:45:29.113Z,101489.59
2023-03-29T07:46:47.564Z,101497.88
2023-03-29T07:47:54.060Z,101486.06
2023-03-29T07:48:56.793Z,101496.25
2023-03-29T07:49:59.305Z,101486.19
2023-03-29T07:51:01.994Z,101493.00
2023-03-29T07:52:09.251Z,101497.22
2023-03-29T07:53:11.237Z,101488.84
2023-03-29T07:54:13.125Z,101488.72
2023-03-29T07:55:22.739Z,101502.56
2023-03-29T07:56:37.327Z,101489.13
2023-03-29T07:57:49.633Z,101498.81
2023-03-29T07:58:52.274Z,101496.16
2023-03-29T07:59:54.814Z,101484.44
2023-03-29T08:01:01.922Z,101498.81
2023-03-29T08:02:27.451Z,101501.13
2023-03-29T08:03:32.273Z,101484.63
2023-03-29T08:04:34.755Z,101498.69
2023-03-29T08:05:56.917Z,101501.03
2023-03-29T08:06:59.475Z,101492.31
2023-03-29T08:08:14.305Z,101501.13
2023-03-29T08:09:29.306Z,101493.78
2023-03-29T08:10:31.662Z,101485.72
2023-03-29T08:11:40.962Z,101495.81
2023-03-29T08:12:52.464Z,101493.28
2023-03-29T08:14:00.107Z,101494.00
2023-03-29T08:15:02.317Z,101487.94
2023-03-29T08:16:08.877Z,101496.66
2023-03-29T08:17:15.939Z,101495.81
2023-03-29T08:18:22.388Z,101498.38
2023-03-29T08:19:24.491Z,101499.44
2023-03-29T08:20:35.510Z,101502.00
2023-03-29T08:21:39.356Z,101497.50
2023-03-29T08:22:42.246Z,101499.34
2023-03-29T08:24:04.559Z,101498.16
2023-03-29T08:25:18.595Z,101482.59
2023-03-29T08:26:24.399Z,101500.81
2023-03-29T08:27:26.717Z,101496.44
2023-03-29T08:28:29.197Z,101499.09
2023-03-29T08:29:31.368Z,101494.75
2023-03-29T08:30:34.097Z,101502.72
2023-03-29T08:31:38.034Z,101495.47
2023-03-29T08:32:40.046Z,101499.09
2023-03-29T08:33:44.346Z,101499.09
2023-03-29T08:35:18.594Z,101491.38
2023-03-29T08:36:39.033Z,101493.00
2023-03-29T08:37:47.818Z,101494.06
2023-03-29T08:38:51.549Z,101488.84
2023-03-29T08:39:53.725Z,101472.03
2023-03-29T08:41:41.719Z,101487.16
2023-03-29T08:43:28.629Z,101484.53
2023-03-29T08:45:26.869Z,101476.91
2023-03-29T08:46:42.998Z,101486.97
2023-03-29T08:48:26.777Z,101489.63
2023-03-29T08:49:30.919Z,101489.72
2023-03-29T08:50:38.219Z,101486.56
2023-03-29T08:51:46.022Z,101491.16
2023-03-29T08:53:00.678Z,101492.84
2023-03-29T08:54:47.504Z,101475.91
2023-03-29T08:56:20.734Z,101486.84
2023-03-29T08:57:48.802Z,101488.66
2023-03-29T08:59:01.736Z,101486.22
2023-03-29T09:00:14.420Z,101477.72
2023-03-29T09:01:16.255Z,101488.16
2023-03-29T09:02:34.194Z,101492.63
2023-03-29T09:03:48.309Z,101485.59
2023-03-29T09:05:20.520Z,101484.63
2023-03-29T09:06:55.333Z,101472.31
2023-03-29T09:08:02.033Z,101485.03
2023-03-29T09:09:03.993Z,101473.88
2023-03-29T09:10:06.191Z,101485.50
2023-03-29T09:11:24.509Z,101483.66
2023-03-29T09:12:58.809Z,101475.44
2023-03-29T09:14:10.339Z,101466.97
2023-03-29T09:15:27.877Z,101456.78
2023-03-29T09:17:27.367Z,101470.03
2023-03-29T09:18:34.950Z,101463.13
2023-03-29T09:19:43.139Z,101461.44
2023-03-29T09:20:51.533Z,101466.25
2023-03-29T09:22:16.186Z,101466.13
2023-03-29T09:23:55.786Z,101463.13
2023-03-29T09:25:57.479Z,101455.41
2023-03-29T09:27:19.831Z,101466.31
2023-03-29T09:28:47.605Z,101461.81
2023-03-29T09:30:12.482Z,101456.38
2023-03-29T09:31:48.648Z,101452.75
2023-03-29T09:33:03.445Z,101452.25
2023-03-29T09:34:34.678Z,101457.34
2023-03-29T09:36:07.027Z,101457.56
2023-03-29T09:37:28.840Z,101460.84
2023-03-29T09:38:32.155Z,101454.66
2023-03-29T09:39:34.200Z,101452.34
2023-03-29T09:40:56.671Z,101449.41
2023-03-29T09:41:59.782Z,101456.69
2023-03-29T09:43:04.305Z,101459.59
2023-03-29T09:44:29.763Z,101462.28
2023-03-29T09:45:39.389Z,101458.31
2023-03-29T09:46:47.632Z,101451.50
2023-03-29T09:48:07.984Z,101447.97
2023-03-29T09:49:17.728Z,101453.31
2023-03-29T09:50:31.573Z,101458.31
2023-03-29T09:51:37.562Z,101456.84
2023-03-29T09:52:39.796Z,101451.50
2023-03-29T09:53:49.602Z,101460.97
2023-03-29T09:55:31.112Z,101450.41
2023-03-29T09:56:56.013Z,101458.56
2023-03-29T09:58:25.050Z,101464.63
2023-03-29T09:59:29.150Z,101445.81
2023-03-29T10:00:31.041Z,101455.41
2023-03-29T10:01:45.626Z,101457.19
2023-03-29T10:02:53.921Z,101455.41
2023-03-29T10:04:01.962Z,101459.78
2023-03-29T10:05:06.365Z,101457.34
2023-03-29T10:06:11.279Z,101463.50
2023-03-29T10:07:20.778Z,101463.41
2023-03-29T10:08:36.844Z,101457.09
2023-03-29T10:09:42.475Z,101443.50
2023-03-29T10:10:51.600Z,101454.31
2023-03-29T10:12:02.329Z,101458.91
2023-03-29T10:13:07.245Z,101450.81
2023-03-29T10:14:23.055Z,101449.84
2023-03-29T10:15:30.377Z,101451.53
2023-03-29T10:16:46.416Z,101440.47
2023-03-29T10:17:48.921Z,101435.88
2023-03-29T10:18:51.147Z,101442.56
2023-03-29T10:19:57.838Z,101450.66
2023-03-29T10:21:02.555Z,101440.00
2023-03-29T10:22:07.953Z,101442.06
2023-03-29T10:23:18.528Z,101433.84
2023-03-29T10:24:25.980Z,101439.75
2023-03-29T10:25:31.408Z,101438.19
2023-03-29T10:26:34.495Z,101433.69
2023-03-29T10:27:36.487Z,101443.41
2023-03-29T10:28:38.842Z,101441.69
2023-03-29T10:29:42.586Z,101435.41
2023-03-29T10:30:52.512Z,101436.50
2023-03-29T10:31:54.998Z,101420.00
2023-03-29T10:32:59.861Z,101434.56
2023-03-29T10:34:06.563Z,101437.47
2023-03-29T10:35:24.180Z,101429.97
2023-03-29T10:36:27.563Z,101423.53
2023-03-29T10:37:29.517Z,101423.53
2023-03-29T10:38:32.073Z,101421.00
2023-03-29T10:39:35.069Z,101424.63
2023-03-29T10:40:45.120Z,101411.88
2023-03-29T10:41:52.537Z,101417.59
2023-03-29T10:42:59.433Z,101436.03
2023-03-29T10:44:02.339Z,101419.06
2023-03-29T10:45:04.405Z,101424.38
2023-03-29T10:46:09.327Z,101411.16
2023-03-29T10:47:20.311Z,101422.69
2023-03-29T10:48:29.959Z,101421.63
2023-03-29T10:49:41.149Z,101418.94
2023-03-29T10:50:43.202Z,101413.47
2023-03-29T10:51:47.001Z,101399.03
2023-03-29T10:52:50.481Z,101402.66
2023-03-29T10:53:52.281Z,101410.09
2023-03-29T10:54:56.345Z,101411.06
2023-03-29T10:56:23.055Z,101417.59
2023-03-29T10:57:44.686Z,101416.63
2023-03-29T10:59:11.095Z,101420.91
2023-03-29T11:00:29.415Z,101409.59
2023-03-29T11:01:42.639Z,101414.69
2023-03-29T11:03:07.586Z,101420.03
2023-03-29T11:04:30.025Z,101420.91
2023-03-29T11:05:49.984Z,101411.69
2023-03-29T11:07:00.718Z,101411.06
2023-03-29T11:08:20.754Z,101414.69
2023-03-29T11:09:34.591Z,101413.00
2023-03-29T11:10:50.879Z,101413.88
2023-03-29T11:12:16.552Z,101407.44
2023-03-29T11:13:27.874Z,101413.63
2023-03-29T11:14:50.604Z,101407.66
2023-03-29T11:15:52.360Z,101407.44
2023-03-29T11:17:38.618Z,101397.47
2023-03-29T11:18:43.662Z,101402.81
2023-03-29T11:20:20.309Z,101407.19
2023-03-29T11:21:34.156Z,101408.88
2023-03-29T11:22:47.816Z,101408.53
2023-03-29T11:24:00.316Z,101397.25
2023-03-29T11:25:32.225Z,101409.38
2023-03-29T11:26:36.778Z,101404.66
2023-03-29T11:28:03.918Z,101406.34
2023-03-29T11:29:23.443Z,101402.72
2023-03-29T11:30:42.449Z,101406.34
2023-03-29T11:31:58.946Z,101399.31
2023-03-29T11:33:25.262Z,101403.78
2023-03-29T11:35:00.225Z,101397.50
2023-03-29T11:36:09.379Z,101406.13
2023-03-29T11:37:37.387Z,101398.22
2023-03-29T11:38:55.723Z,101398.22
2023-03-29T11:40:05.851Z,101402.72
2023-03-29T11:41:26.708Z,101383.91
2023-03-29T11:42:33.233Z,101396.75
2023-03-29T11:43:44.428Z,101400.41
2023-03-29T11:44:49.049Z,101398.69
2023-03-29T11:45:56.014Z,101406.84
2023-03-29T11:46:58.710Z,101397.00
2023-03-29T11:48:05.446Z,101397.13
2023-03-29T11:49:59.875Z,101393.13
2023-03-29T11:51:09.803Z,101395.53
2023-03-29T11:52:20.401Z,101395.44
2023-03-29T11:53:57.217Z,101382.34
2023-03-29T11:55:04.394Z,101378.94
2023-03-29T11:56:14.470Z,101389.47
2023-03-29T11:57:27.888Z,101375.31
2023-03-29T11:58:36.649Z,101380.03
2023-03-29T11:59:53.584Z,101378.72
2023-03-29T12:01:01.877Z,101379.69
2023-03-29T12:02:23.703Z,101378.72
2023-03-29T12:03:57.455Z,101375.78
2023-03-29T12:05:05.578Z,101375.78
2023-03-29T12:06:36.153Z,101381.97
2023-03-29T12:07:46.842Z,101366.44
2023-03-29T12:08:58.941Z,101374.22
2023-03-29T12:10:07.175Z,101380.50
2023-03-29T12:11:19.796Z,101374.34
2023-03-29T12:12:45.730Z,101373.22
2023-03-29T12:13:56.420Z,101348.88
2023-03-29T12:15:07.072Z,101364.50
2023-03-29T12:16:34.602Z,101365.00
2023-03-29T12:17:43.508Z,101345.50
2023-03-29T12:18:49.950Z,101361.72
2023-03-29T12:20:07.002Z,101371.53
2023-03-29T12:21:18.931Z,101366.94
2023-03-29T12:22:22.642Z,101355.19
2023-03-29T12:23:24.599Z,101370.72
2023-03-29T12:24:31.857Z,101378.81
2023-03-29T12:26:12.008Z,101367.91
2023-03-29T12:27:22.784Z,101365.84
2023-03-29T12:28:36.790Z,101365.00
2023-03-29T12:29:41.188Z,101362.31
2023-03-29T12:30:50.932Z,101365.38
2023-03-29T12:32:17.372Z,101355.28
2023-03-29T12:33:49.256Z,101357.50
2023-03-29T12:35:17.096Z,101367.94
2023-03-29T12:36:39.082Z,101362.44
2023-03-29T12:38:05.214Z,101360.16
2023-03-29T12:39:28.915Z,101360.91
2023-03-29T12:40:57.204Z,101331.44
2023-03-29T12:42:21.087Z,101361.72
2023-03-29T12:44:03.513Z,101357.97
2023-03-29T12:45:37.366Z,101349.97
2023-03-29T12:46:40.555Z,101343.53
2023-03-29T12:47:45.646Z,101335.31
2023-03-29T12:48:51.168Z,101354.22
2023-03-29T12:49:58.610Z,101360.41
2023-03-29T12:51:07.838Z,101353.34
2023-03-29T12:52:27.059Z,101344.75
2023-03-29T12:53:35.769Z,101351.31
2023-03-29T12:54:37.885Z,101347.19
2023-03-29T12:55:42.541Z,101352.41
2023-03-29T12:57:23.172Z,101348.38
2023-03-29T12:58:40.481Z,101348.75
2023-03-29T12:59:48.443Z,101351.78
2023-03-29T13:01:05.773Z,101349.25
2023-03-29T13:02:14.165Z,101350.94
2023-03-29T13:03:28.658Z,101345.63
2023-03-29T13:04:55.810Z,101349.84
2023-03-29T13:06:10.284Z,101353.22
2023-03-29T13:07:26.388Z,101347.06
2023-03-29T13:08:35.313Z,101359.69
2023-03-29T13:09:56.526Z,101351.44
2023-03-29T13:10:58.909Z,101341.72
2023-03-29T13:12:15.904Z,101339.06
2023-03-29T13:13:21.637Z,101342.69
2023-03-29T13:14:30.075Z,101334.69
2023-03-29T13:15:34.612Z,101327.03
2023-03-29T13:16:37.056Z,101338.91
2023-03-29T13:18:02.737Z,101333.47
2023-03-29T13:19:20.017Z,101332.75
2023-03-29T13:20:32.971Z,101296.38
2023-03-29T13:22:00.582Z,101334.22
2023-03-29T13:23:02.437Z,101334.69
2023-03-29T13:24:44.561Z,101336.38
2023-03-29T13:26:19.205Z,101335.66
2023-03-29T13:27:54.477Z,101335.28
2023-03-29T13:29:12.724Z,101335.16
2023-03-29T13:30:28.502Z,101338.81
2023-03-29T13:31:56.463Z,101326.44